^^
Station Historical Data
Daily Summary for September 26, 2017 Units:  English    Metric   Both
« Previous Day
Next Day »
Daily Weekly Monthly Yearly Custom
  High: Low: Average:
Temperature: 83.8 °F 65.7 °F 72.7 °F
Dew Point: 71.5 °F 63.8 °F 66.9 °F
Humidity: 96% 60% 83%
Wind Speed: 3.0mph 0.0mph 0.5mph
Wind Gust: 8.0mph - -
Wind- - WSW
Pressure: 30.06 in 29.97 in -
Precipitation: 0.00 in    
Historical Graphs
 
 
Tabular Data for September 26, 2017
Time Temperature Dew Point Pressure Wind Wind Speed Wind Gust Humidity Rainfall Rate (Hourly) Conditions
00:00 67.8 °F 64.4 °F 30.03 in Calm     89% 0.00 in CLR
00:15 67.3 °F 64.3 °F 30.03 in Calm     90% 0.00 in CLR
00:30 66.8 °F 63.8 °F 30.03 in Calm     90% 0.00 in CLR
00:45 67.1 °F 64.4 °F 30.03 in Calm     91% 0.00 in CLR
01:00 66.8 °F 64.1 °F 30.03 in Calm     91% 0.00 in CLR
01:15 66.8 °F 64.4 °F 30.03 in Calm   1.0 mph 92% 0.00 in CLR
01:30 67.1 °F 64.7 °F 30.04 in Calm     92% 0.00 in CLR
01:45 66.9 °F 64.5 °F 30.05 in Calm     92% 0.00 in CLR
02:15 66.8 °F 64.7 °F 30.04 in Calm     93% 0.00 in FEW
02:30 66.8 °F 64.7 °F 30.04 in Calm   1.0 mph 93% 0.00 in FEW
02:45 66.7 °F 64.6 °F 30.04 in Calm   1.0 mph 93% 0.00 in FEW
03:00 66.5 °F 64.4 °F 30.04 in Calm   1.0 mph 93% 0.00 in FEW
03:15 66.3 °F 64.2 °F 30.04 in Calm   1.0 mph 93% 0.00 in CLR
03:30 66.2 °F 64.1 °F 30.04 in Calm   1.0 mph 93% 0.00 in CLR
03:45 65.8 °F 64.0 °F 30.04 in Calm   1.0 mph 94% 0.00 in CLR
04:00 65.7 °F 63.9 °F 30.04 in Calm   1.0 mph 94% 0.00 in CLR
04:15 66.3 °F 64.8 °F 30.04 in Calm   1.0 mph 95% 0.00 in BKN
04:30 66.6 °F 65.1 °F 30.03 in Calm   1.0 mph 95% 0.00 in BKN
04:45 66.7 °F 65.2 °F 30.04 in Calm     95% 0.00 in BKN
05:00 66.7 °F 65.2 °F 30.04 in Calm     95% 0.00 in BKN
05:15 66.7 °F 65.2 °F 30.03 in Calm     95% 0.00 in CLR
05:30 66.6 °F 65.1 °F 30.03 in Calm   1.0 mph 95% 0.00 in CLR
05:45 66.5 °F 65.0 °F 30.03 in Calm   1.0 mph 95% 0.00 in CLR
06:00 66.5 °F 65.3 °F 30.03 in Calm   1.0 mph 96% 0.00 in CLR
06:15 66.5 °F 65.3 °F 30.04 in Calm   2.0 mph 96% 0.00 in CLR
06:30 66.4 °F 65.2 °F 30.04 in Calm   3.0 mph 96% 0.00 in CLR
06:45 66.4 °F 65.2 °F 30.05 in Calm   2.0 mph 96% 0.00 in CLR
07:00 66.4 °F 65.2 °F 30.05 in Calm   2.0 mph 96% 0.00 in CLR
07:15 66.4 °F 65.2 °F 30.05 in NW 1.0 mph 3.0 mph 96% 0.00 in CLR
07:30 66.4 °F 65.2 °F 30.04 in North 1.0 mph 4.0 mph 96% 0.00 in CLR
07:45 66.4 °F 65.2 °F 30.05 in Calm   4.0 mph 96% 0.00 in CLR
08:00 66.7 °F 65.5 °F 30.05 in Calm   1.0 mph 96% 0.00 in CLR
08:15 66.9 °F 65.7 °F 30.05 in NNW 2.0 mph 3.0 mph 96% 0.00 in BKN
08:30 67.4 °F 66.2 °F 30.05 in Calm   3.0 mph 96% 0.00 in BKN
08:45 68.0 °F 66.5 °F 30.06 in Calm   1.0 mph 95% 0.00 in BKN
09:00 69.1 °F 67.3 °F 30.06 in Calm   1.0 mph 94% 0.00 in BKN
09:15 70.3 °F 67.5 °F 30.06 in Calm   4.0 mph 91% 0.00 in BKN
09:30 71.1 °F 67.7 °F 30.06 in Calm   2.0 mph 89% 0.00 in BKN
09:45 72.1 °F 68.0 °F 30.06 in Calm   2.0 mph 87% 0.00 in BKN
10:00 73.0 °F 68.2 °F 30.06 in Calm   3.0 mph 85% 0.00 in BKN
10:15 72.9 °F 68.1 °F 30.06 in WNW 1.0 mph 3.0 mph 85% 0.00 in FEW
10:30 73.1 °F 68.6 °F 30.06 in WSW 1.0 mph 5.0 mph 86% 0.00 in FEW
10:45 73.8 °F 69.0 °F 30.06 in NW 2.0 mph 3.0 mph 85% 0.00 in FEW
11:00 74.5 °F 69.4 °F 30.05 in WNW 1.0 mph 4.0 mph 84% 0.00 in FEW
11:15 76.6 °F 69.2 °F 30.05 in SW 1.0 mph 4.0 mph 78% 0.00 in FEW
11:30 77.8 °F 70.4 °F 30.04 in SSW 1.0 mph 5.0 mph 78% 0.00 in FEW
11:45 77.9 °F 69.7 °F 30.04 in SSW 2.0 mph 7.0 mph 76% 0.00 in FEW
12:00 78.0 °F 70.2 °F 30.03 in SW 3.0 mph 7.0 mph 77% 0.00 in FEW
12:15 79.5 °F 70.9 °F 30.04 in SSW 2.0 mph 6.0 mph 75% 0.00 in FEW
12:30 79.6 °F 70.2 °F 30.03 in WSW 1.0 mph 6.0 mph 73% 0.00 in FEW
12:45 80.4 °F 70.9 °F 30.02 in WSW 2.0 mph 6.0 mph 73% 0.00 in FEW
13:00 80.7 °F 70.8 °F 30.02 in SW 1.0 mph 5.0 mph 72% 0.00 in FEW
13:15 80.9 °F 70.6 °F 30.01 in WSW 1.0 mph 5.0 mph 71% 0.00 in FEW
13:30 81.4 °F 71.5 °F 30.01 in ENE 1.0 mph 5.0 mph 72% 0.00 in FEW
13:45 81.3 °F 71.0 °F 30.01 in SSW 1.0 mph 5.0 mph 71% 0.00 in FEW
14:00 82.0 °F 70.4 °F 30.00 in SSW 2.0 mph 4.0 mph 68% 0.00 in FEW
14:15 82.4 °F 70.7 °F 30.00 in Calm   3.0 mph 68% 0.00 in FEW
14:30 82.3 °F 70.6 °F 30.00 in SW 1.0 mph 5.0 mph 68% 0.00 in FEW
14:45 82.6 °F 70.1 °F 29.99 in SSW 1.0 mph 7.0 mph 66% 0.00 in FEW
15:00 83.1 °F 69.7 °F 29.99 in SW 3.0 mph 7.0 mph 64% 0.00 in FEW
15:15 82.8 °F 69.8 °F 29.99 in Calm   7.0 mph 65% 0.00 in FEW
15:30 83.8 °F 70.3 °F 29.99 in South 3.0 mph 6.0 mph 64% 0.00 in FEW
15:45 82.6 °F 69.7 °F 29.98 in SW 2.0 mph 6.0 mph 65% 0.00 in FEW
16:00 82.3 °F 69.4 °F 29.99 in WSW 1.0 mph 8.0 mph 65% 0.00 in FEW
16:15 82.9 °F 69.5 °F 29.98 in Calm   5.0 mph 64% 0.00 in FEW
16:30 83.3 °F 69.4 °F 29.98 in Calm   4.0 mph 63% 0.00 in FEW
16:45 83.3 °F 68.0 °F 29.98 in SSW 1.0 mph 5.0 mph 60% 0.00 in FEW
17:00 83.2 °F 67.9 °F 29.97 in SSW 1.0 mph 5.0 mph 60% 0.00 in FEW
17:15 82.8 °F 67.5 °F 29.97 in Calm   3.0 mph 60% 0.00 in CLR
17:30 82.1 °F 67.8 °F 29.97 in SW 2.0 mph 5.0 mph 62% 0.00 in CLR
17:45 82.1 °F 67.3 °F 29.97 in SSW 1.0 mph 4.0 mph 61% 0.00 in CLR
18:00 80.8 °F 67.5 °F 29.97 in Calm   5.0 mph 64% 0.00 in CLR
18:15 80.2 °F 67.3 °F 29.97 in West 1.0 mph 2.0 mph 65% 0.00 in CLR
18:30 77.7 °F 67.1 °F 29.97 in Calm   2.0 mph 70% 0.00 in CLR
18:45 76.2 °F 65.7 °F 29.98 in Calm     70% 0.00 in CLR
19:00 74.8 °F 65.1 °F 29.97 in Calm   1.0 mph 72% 0.00 in CLR
19:15 73.9 °F 65.1 °F 29.97 in Calm   2.0 mph 74% 0.00 in CLR
19:30 73.3 °F 64.9 °F 29.97 in Calm   1.0 mph 75% 0.00 in CLR
19:45 72.5 °F 64.9 °F 29.98 in Calm   1.0 mph 77% 0.00 in CLR
20:00 72.3 °F 64.7 °F 29.98 in Calm   1.0 mph 77% 0.00 in CLR
20:15 71.6 °F 65.1 °F 29.98 in Calm   1.0 mph 80% 0.00 in CLR
20:30 71.6 °F 65.5 °F 29.98 in Calm   1.0 mph 81% 0.00 in CLR
20:45 71.3 °F 66.2 °F 29.98 in NW 1.0 mph 4.0 mph 84% 0.00 in CLR
21:00 70.9 °F 66.5 °F 29.99 in Calm   2.0 mph 86% 0.00 in CLR
21:15 70.3 °F 66.3 °F 29.99 in Calm     87% 0.00 in CLR
21:30 69.9 °F 66.5 °F 29.99 in Calm   1.0 mph 89% 0.00 in CLR
21:45 69.7 °F 66.6 °F 29.99 in Calm   1.0 mph 90% 0.00 in CLR
22:00 69.3 °F 66.6 °F 29.99 in Calm   1.0 mph 91% 0.00 in CLR
22:15 68.8 °F 66.4 °F 29.99 in Calm     92% 0.00 in CLR
22:30 68.2 °F 65.8 °F 29.99 in Calm   1.0 mph 92% 0.00 in CLR
22:45 68.4 °F 66.3 °F 29.99 in Calm   1.0 mph 93% 0.00 in CLR
23:00 68.3 °F 66.5 °F 29.99 in Calm   2.0 mph 94% 0.00 in CLR
23:15 68.4 °F 66.6 °F 29.98 in Calm   2.0 mph 94% 0.00 in CLR
23:30 68.2 °F 66.4 °F 29.98 in Calm   1.0 mph 94% 0.00 in CLR
23:45 68.0 °F 66.5 °F 29.98 in Calm   1.0 mph 95% 0.00 in CLR
TarryTown NY Weather
Compliments of Weather Underground - 1.5 mb